createdAt,value
2023-02-19T00:01:52.984Z,100974.38
2023-02-19T00:04:23.635Z,100977.16
2023-02-19T00:06:52.284Z,100977.59
2023-02-19T00:09:21.532Z,100987.88
2023-02-19T00:11:50.245Z,100984.47
2023-02-19T00:14:20.816Z,100975.59
2023-02-19T00:16:50.713Z,100981.63
2023-02-19T00:19:21.166Z,100978.56
2023-02-19T00:21:51.385Z,100972.78
2023-02-19T00:24:22.961Z,100979.53
2023-02-19T00:26:51.375Z,100975.63
2023-02-19T00:29:22.657Z,100972.75
2023-02-19T00:31:52.320Z,100982.09
2023-02-19T00:34:20.580Z,100987.22
2023-02-19T00:36:48.728Z,100986.19
2023-02-19T00:39:18.525Z,100974.38
2023-02-19T00:41:47.036Z,100951.91
2023-02-19T00:44:16.209Z,100963.00
2023-02-19T00:46:46.254Z,100954.53
2023-02-19T00:49:19.080Z,100957.50
2023-02-19T00:51:47.833Z,100953.91
2023-02-19T00:54:16.830Z,100940.06
2023-02-19T00:56:45.115Z,100941.59
2023-02-19T00:59:13.564Z,100946.97
2023-02-19T01:01:42.149Z,100943.69
2023-02-19T01:04:10.348Z,100941.41
2023-02-19T01:06:39.891Z,100956.31
2023-02-19T01:09:08.161Z,100943.50
2023-02-19T01:11:36.748Z,100954.59
2023-02-19T01:14:05.527Z,100952.78
2023-02-19T01:16:33.715Z,100959.56
2023-02-19T01:19:02.279Z,100960.69
2023-02-19T01:21:31.620Z,100941.88
2023-02-19T01:24:01.367Z,100938.78
2023-02-19T01:26:31.871Z,100936.94
2023-02-19T01:29:00.766Z,100933.19
2023-02-19T01:31:30.303Z,100930.56
2023-02-19T01:34:01.145Z,100922.50
2023-02-19T01:36:31.253Z,100927.75
2023-02-19T01:39:04.059Z,100912.34
2023-02-19T01:41:33.623Z,100907.53
2023-02-19T01:44:04.012Z,100899.66
2023-02-19T01:46:34.233Z,100892.13
2023-02-19T01:49:07.242Z,100893.69
2023-02-19T01:51:38.988Z,100885.06
2023-02-19T01:54:11.264Z,100890.31
2023-02-19T01:56:42.648Z,100885.88
2023-02-19T01:59:11.251Z,100881.41
2023-02-19T02:01:41.090Z,100890.06
2023-02-19T02:04:11.751Z,100881.22
2023-02-19T02:06:45.698Z,100852.53
2023-02-19T02:09:44.476Z,100855.19
2023-02-19T02:12:13.470Z,100853.03
2023-02-19T02:14:46.085Z,100854.06
2023-02-19T02:17:21.773Z,100856.81
2023-02-19T02:20:28.715Z,100860.44
2023-02-19T02:23:09.769Z,100855.81
2023-02-19T02:25:59.000Z,100840.28
2023-02-19T02:28:42.500Z,100823.38
2023-02-19T02:31:15.946Z,100817.03
2023-02-19T02:33:50.375Z,100823.28
2023-02-19T02:36:21.383Z,100816.41
2023-02-19T02:38:52.836Z,100818.44
2023-02-19T02:41:22.875Z,100821.22
2023-02-19T02:43:51.020Z,100818.53
2023-02-19T02:46:25.269Z,100819.03
2023-02-19T02:48:57.833Z,100827.72
2023-02-19T02:51:30.000Z,100829.22
2023-02-19T02:54:25.894Z,100825.78
2023-02-19T02:56:57.342Z,100832.84
2023-02-19T02:59:32.455Z,100832.84
2023-02-19T03:02:11.099Z,100834.06
2023-02-19T03:05:01.917Z,100835.69
2023-02-19T03:07:36.883Z,100832.34
2023-02-19T03:10:08.664Z,100835.47
2023-02-19T03:12:57.862Z,100829.41
2023-02-19T03:15:47.660Z,100833.88
2023-02-19T03:18:37.181Z,100843.56
2023-02-19T03:21:08.452Z,100838.59
2023-02-19T03:23:57.559Z,100843.66
2023-02-19T03:26:27.187Z,100852.34
2023-02-19T03:29:16.488Z,100850.41
2023-02-19T03:31:49.155Z,100854.78
2023-02-19T03:34:26.202Z,100857.59
2023-02-19T03:37:01.847Z,100861.31
2023-02-19T03:39:30.643Z,100855.16
2023-02-19T03:42:02.926Z,100869.69
2023-02-19T03:44:39.742Z,100882.94
2023-02-19T03:47:16.972Z,100885.84
2023-02-19T03:49:50.645Z,100883.16
2023-02-19T03:52:28.609Z,100885.22
2023-02-19T03:55:04.269Z,100876.72
2023-02-19T03:57:40.691Z,100874.88
2023-02-19T04:00:14.236Z,100872.56
2023-02-19T04:02:50.077Z,100865.28
2023-02-19T04:05:22.655Z,100867.59
2023-02-19T04:07:54.467Z,100872.59
2023-02-19T04:10:28.937Z,100863.16
2023-02-19T04:13:02.675Z,100860.66
2023-02-19T04:15:34.610Z,100864.25
2023-02-19T04:18:06.946Z,100876.97
2023-02-19T04:20:40.463Z,100866.66
2023-02-19T04:23:09.491Z,100866.81
2023-02-19T04:25:40.448Z,100871.13
2023-02-19T04:28:09.459Z,100870.34
2023-02-19T04:30:37.739Z,100870.34
2023-02-19T04:33:06.042Z,100878.38
2023-02-19T04:35:34.170Z,100874.81
2023-02-19T04:38:03.677Z,100875.06
2023-02-19T04:40:31.905Z,100881.09
2023-02-19T04:43:00.100Z,100897.91
2023-02-19T04:45:28.233Z,100891.75
2023-02-19T04:47:58.388Z,100893.63
2023-02-19T04:50:26.953Z,100879.56
2023-02-19T04:52:55.215Z,100888.13
2023-02-19T04:55:25.066Z,100888.69
2023-02-19T04:57:53.208Z,100893.16
2023-02-19T05:00:21.558Z,100897.88
2023-02-19T05:02:49.810Z,100890.09
2023-02-19T05:05:18.151Z,100890.84
2023-02-19T05:07:46.389Z,100888.88
2023-02-19T05:10:14.545Z,100890.94
2023-02-19T05:12:44.073Z,100890.13
2023-02-19T05:15:12.201Z,100901.31
2023-02-19T05:17:40.349Z,100892.72
2023-02-19T05:20:09.841Z,100890.22
2023-02-19T05:22:38.333Z,100890.91
2023-02-19T05:25:06.999Z,100887.16
2023-02-19T05:27:35.213Z,100890.13
2023-02-19T05:30:05.191Z,100891.22
2023-02-19T05:32:36.253Z,100887.75
2023-02-19T05:35:04.855Z,100893.78
2023-02-19T05:37:33.007Z,100880.09
2023-02-19T05:40:01.140Z,100877.53
2023-02-19T05:42:29.291Z,100886.28
2023-02-19T05:44:57.434Z,100895.81
2023-02-19T05:47:26.892Z,100891.31
2023-02-19T05:49:55.014Z,100890.59
2023-02-19T05:52:23.202Z,100888.19
2023-02-19T05:54:51.353Z,100883.69
2023-02-19T05:57:20.413Z,100883.84
2023-02-19T05:59:48.564Z,100891.69
2023-02-19T06:02:16.766Z,100894.16
2023-02-19T06:04:46.228Z,100889.69
2023-02-19T06:07:14.382Z,100888.25
2023-02-19T06:09:42.526Z,100882.38
2023-02-19T06:12:10.675Z,100883.47
2023-02-19T06:14:38.804Z,100881.44
2023-02-19T06:17:07.060Z,100878.00
2023-02-19T06:19:35.213Z,100881.53
2023-02-19T06:22:04.927Z,100883.94
2023-02-19T06:24:33.116Z,100869.19
2023-02-19T06:27:01.274Z,100876.88
2023-02-19T06:29:29.395Z,100880.91
2023-02-19T06:31:57.633Z,100882.75
2023-02-19T06:34:26.210Z,100882.72
2023-02-19T06:36:54.465Z,100898.41
2023-02-19T06:39:23.945Z,100902.88
2023-02-19T06:41:52.083Z,100913.56
2023-02-19T06:44:20.465Z,100898.69
2023-02-19T06:46:48.711Z,100914.19
2023-02-19T06:49:17.115Z,100914.19
2023-02-19T06:51:45.239Z,100922.72
2023-02-19T06:54:13.550Z,100920.13
2023-02-19T06:56:45.458Z,100914.53
2023-02-19T06:59:17.708Z,100918.13
2023-02-19T07:01:46.740Z,100924.44
2023-02-19T07:04:15.879Z,100927.81
2023-02-19T07:06:44.118Z,100926.09
2023-02-19T07:09:12.660Z,100930.38
2023-02-19T07:11:41.127Z,100931.47
2023-02-19T07:14:16.464Z,100948.91
2023-02-19T07:16:47.331Z,100948.47
2023-02-19T07:19:16.532Z,100949.09
2023-02-19T07:21:44.724Z,100950.41
2023-02-19T07:24:12.920Z,100957.38
2023-02-19T07:26:41.088Z,100957.84
2023-02-19T07:29:11.420Z,100966.81
2023-02-19T07:31:39.654Z,100958.22
2023-02-19T07:34:07.974Z,100977.28
2023-02-19T07:36:36.353Z,100970.34
2023-02-19T07:39:05.220Z,100973.50
2023-02-19T07:41:33.611Z,100980.84
2023-02-19T07:44:01.749Z,100991.19
2023-02-19T07:46:32.174Z,100989.31
2023-02-19T07:49:01.001Z,100987.50
2023-02-19T07:51:29.213Z,100994.00
2023-02-19T07:53:57.383Z,100995.47
2023-02-19T07:56:25.529Z,100988.50
2023-02-19T07:58:53.655Z,100994.50
2023-02-19T08:01:45.116Z,100989.09
2023-02-19T08:04:14.577Z,100993.00
2023-02-19T08:06:43.173Z,100991.41
2023-02-19T08:09:11.671Z,100994.63
2023-02-19T08:11:57.480Z,100992.03
2023-02-19T08:14:26.528Z,101003.47
2023-02-19T08:16:55.226Z,100999.22
2023-02-19T08:19:24.864Z,101008.81
2023-02-19T08:21:53.564Z,101005.63
2023-02-19T08:24:21.890Z,101023.94
2023-02-19T08:26:50.121Z,101022.13
2023-02-19T08:29:18.279Z,101041.06
2023-02-19T08:31:46.752Z,101039.00
2023-02-19T08:34:15.003Z,101051.53
2023-02-19T08:36:44.527Z,101050.63
2023-02-19T08:39:12.702Z,101050.59
2023-02-19T08:41:40.859Z,101064.97
2023-02-19T08:44:09.017Z,101070.25
2023-02-19T08:46:37.176Z,101065.47
2023-02-19T08:49:05.333Z,101080.06
2023-02-19T08:51:33.475Z,101083.44
2023-02-19T08:54:05.061Z,101096.25
2023-02-19T08:56:33.357Z,101096.00
2023-02-19T08:59:01.476Z,101095.81
2023-02-19T09:01:29.653Z,101100.16
2023-02-19T09:03:57.894Z,101111.34
2023-02-19T09:06:26.103Z,101093.78
2023-02-19T09:08:54.274Z,101116.63
2023-02-19T09:11:23.765Z,101114.81
2023-02-19T09:13:51.891Z,101098.69
2023-02-19T09:16:20.059Z,101112.13
2023-02-19T09:18:48.260Z,101108.59
2023-02-19T09:21:16.311Z,101119.03
2023-02-19T09:23:44.383Z,101120.25
2023-02-19T09:26:14.002Z,101115.09
2023-02-19T09:28:43.486Z,101118.56
2023-02-19T09:31:14.157Z,101119.91
2023-02-19T09:33:47.079Z,101121.25
2023-02-19T09:36:17.011Z,101126.69
2023-02-19T09:38:45.895Z,101125.59
2023-02-19T09:41:23.356Z,101127.06
2023-02-19T09:43:52.945Z,101124.13
2023-02-19T09:46:29.531Z,101127.66
2023-02-19T09:49:03.284Z,101128.50
2023-02-19T09:51:33.374Z,101123.16
2023-02-19T09:54:03.438Z,101133.84
2023-02-19T09:56:31.798Z,101144.44
2023-02-19T09:59:02.022Z,101142.47
2023-02-19T10:01:38.375Z,101142.41
2023-02-19T10:04:06.699Z,101150.59
2023-02-19T10:06:36.304Z,101153.47
2023-02-19T10:09:22.870Z,101144.66
2023-02-19T10:11:51.162Z,101157.34
2023-02-19T10:14:29.501Z,101156.50
2023-02-19T10:17:01.465Z,101155.69
2023-02-19T10:19:29.970Z,101164.28
2023-02-19T10:21:58.214Z,101179.25
2023-02-19T10:24:29.412Z,101169.97
2023-02-19T10:26:58.012Z,101170.19
2023-02-19T10:29:27.950Z,101185.03
2023-02-19T10:32:18.721Z,101187.25
2023-02-19T10:34:46.931Z,101188.00
2023-02-19T10:37:18.182Z,101194.75
2023-02-19T10:39:48.316Z,101201.81
2023-02-19T10:42:18.851Z,101209.34
2023-02-19T10:44:53.828Z,101219.00
2023-02-19T10:47:24.952Z,101221.22
2023-02-19T10:49:56.343Z,101219.78
2023-02-19T10:52:27.976Z,101229.41
2023-02-19T10:54:58.479Z,101225.41
2023-02-19T10:57:32.913Z,101242.72
2023-02-19T11:00:18.738Z,101238.72
2023-02-19T11:02:46.903Z,101247.66
2023-02-19T11:05:20.934Z,101263.47
2023-02-19T11:07:51.104Z,101259.34
2023-02-19T11:10:27.366Z,101255.94
2023-02-19T11:12:57.808Z,101261.06
2023-02-19T11:15:31.315Z,101260.53
2023-02-19T11:18:02.975Z,101270.00
2023-02-19T11:20:32.135Z,101273.25
2023-02-19T11:23:04.765Z,101276.88
2023-02-19T11:25:32.925Z,101279.25
2023-02-19T11:28:08.190Z,101277.63
2023-02-19T11:30:40.949Z,101283.63
2023-02-19T11:33:22.774Z,101286.03
2023-02-19T11:35:53.257Z,101283.25
2023-02-19T11:38:21.872Z,101284.75
2023-02-19T11:40:56.896Z,101296.72
2023-02-19T11:43:41.865Z,101312.81
2023-02-19T11:46:20.727Z,101319.47
2023-02-19T11:48:56.805Z,101322.75
2023-02-19T11:51:55.987Z,101325.81
2023-02-19T11:54:45.150Z,101320.72
2023-02-19T11:57:33.798Z,101322.69
2023-02-19T12:00:18.464Z,101319.97
2023-02-19T12:03:02.244Z,101328.69
2023-02-19T12:05:50.620Z,101322.00
2023-02-19T12:08:50.765Z,101341.03
2023-02-19T12:11:46.909Z,101334.63
2023-02-19T12:14:52.180Z,101327.00
2023-02-19T12:17:36.082Z,101332.63
2023-02-19T12:20:18.574Z,101333.59
2023-02-19T12:22:56.029Z,101330.19
2023-02-19T12:25:41.885Z,101344.66
2023-02-19T12:28:40.514Z,101343.97
2023-02-19T12:31:33.018Z,101342.66
2023-02-19T12:34:36.878Z,101345.81
2023-02-19T12:37:18.231Z,101341.03
2023-02-19T12:39:57.098Z,101342.28
2023-02-19T12:42:41.268Z,101344.81
2023-02-19T12:45:19.121Z,101347.34
2023-02-19T12:48:00.472Z,101344.97
2023-02-19T12:50:29.916Z,101348.50
2023-02-19T12:53:03.838Z,101359.50
2023-02-19T12:55:35.080Z,101372.97
2023-02-19T12:58:06.694Z,101371.34
2023-02-19T13:00:40.421Z,101376.38
2023-02-19T13:03:14.257Z,101385.28
2023-02-19T13:05:48.815Z,101385.72
2023-02-19T13:08:24.786Z,101389.44
2023-02-19T13:10:57.779Z,101396.09
2023-02-19T13:13:29.908Z,101395.72
2023-02-19T13:16:03.399Z,101403.19
2023-02-19T13:18:36.303Z,101402.56
2023-02-19T13:21:06.230Z,101398.59
2023-02-19T13:23:56.411Z,101403.75
2023-02-19T13:26:42.702Z,101413.59
2023-02-19T13:29:26.410Z,101421.75
2023-02-19T13:32:26.814Z,101424.00
2023-02-19T13:35:11.573Z,101425.81
2023-02-19T13:37:40.988Z,101432.25
2023-02-19T13:40:28.840Z,101442.34
2023-02-19T13:42:59.808Z,101445.13
2023-02-19T13:45:39.456Z,101454.69
2023-02-19T13:48:26.246Z,101444.03
2023-02-19T13:51:27.785Z,101437.03
2023-02-19T13:54:00.274Z,101440.47
2023-02-19T13:56:41.263Z,101450.06
2023-02-19T13:59:25.718Z,101454.44
2023-02-19T14:02:30.559Z,101459.88
2023-02-19T14:05:01.249Z,101458.31
2023-02-19T14:07:54.791Z,101463.50
2023-02-19T14:10:57.589Z,101477.41
2023-02-19T14:14:06.595Z,101472.75
2023-02-19T14:16:52.648Z,101471.63
2023-02-19T14:19:46.523Z,101458.22
2023-02-19T14:23:03.531Z,101471.13
2023-02-19T14:25:54.748Z,101469.31
2023-02-19T14:28:38.243Z,101466.63
2023-02-19T14:31:18.637Z,101473.72
2023-02-19T14:33:49.910Z,101474.59
2023-02-19T14:36:33.545Z,101480.81
2023-02-19T14:39:05.952Z,101499.59
2023-02-19T14:41:38.260Z,101488.00
2023-02-19T14:44:09.633Z,101489.56
2023-02-19T14:46:46.232Z,101486.75
2023-02-19T14:49:19.729Z,101473.97
2023-02-19T14:51:52.418Z,101494.22
2023-02-19T14:54:28.443Z,101481.38
2023-02-19T14:56:58.127Z,101490.25
2023-02-19T14:59:28.846Z,101491.84
2023-02-19T15:02:00.764Z,101489.47
2023-02-19T15:04:35.143Z,101504.63
2023-02-19T15:07:15.631Z,101501.94
2023-02-19T15:09:46.866Z,101491.31
2023-02-19T15:12:18.190Z,101508.44
2023-02-19T15:14:47.965Z,101509.38
2023-02-19T15:17:25.684Z,101517.25
2023-02-19T15:19:55.603Z,101518.28
2023-02-19T15:22:28.205Z,101508.31
2023-02-19T15:24:56.689Z,101515.31
2023-02-19T15:27:26.000Z,101517.03
2023-02-19T15:29:55.063Z,101526.50
2023-02-19T15:32:27.145Z,101534.66
2023-02-19T15:34:56.919Z,101527.78
2023-02-19T15:37:26.911Z,101533.94
2023-02-19T15:39:57.283Z,101543.91
2023-02-19T15:42:27.640Z,101542.25
2023-02-19T15:45:00.821Z,101552.94
2023-02-19T15:47:37.849Z,101560.09
2023-02-19T15:50:11.469Z,101568.03
2023-02-19T15:52:46.623Z,101565.59
2023-02-19T15:55:27.853Z,101547.44
2023-02-19T15:58:04.637Z,101551.44
2023-02-19T16:00:40.151Z,101562.03
2023-02-19T16:03:17.006Z,101585.91
2023-02-19T16:05:45.471Z,101570.31
2023-02-19T16:08:20.080Z,101576.50
2023-02-19T16:10:56.223Z,101582.72
2023-02-19T16:13:26.352Z,101582.84
2023-02-19T16:16:08.344Z,101584.81
2023-02-19T16:18:37.928Z,101587.72
2023-02-19T16:21:09.694Z,101588.69
2023-02-19T16:23:42.962Z,101602.00
2023-02-19T16:26:11.610Z,101606.59
2023-02-19T16:28:41.900Z,101605.00
2023-02-19T16:31:12.846Z,101604.25
2023-02-19T16:33:43.872Z,101620.78
2023-02-19T16:36:34.931Z,101619.03
2023-02-19T16:39:21.966Z,101614.81
2023-02-19T16:42:14.008Z,101621.84
2023-02-19T16:44:43.357Z,101625.16
2023-02-19T16:47:32.115Z,101636.75
2023-02-19T16:50:04.700Z,101641.28
2023-02-19T16:52:32.990Z,101641.41
2023-02-19T16:55:01.753Z,101653.72
2023-02-19T16:57:29.907Z,101666.75
2023-02-19T16:59:58.056Z,101668.53
2023-02-19T17:02:26.630Z,101669.59
2023-02-19T17:04:55.658Z,101666.34
2023-02-19T17:07:27.431Z,101666.22
2023-02-19T17:09:55.571Z,101675.06
2023-02-19T17:12:23.982Z,101674.16
2023-02-19T17:14:52.135Z,101668.91
2023-02-19T17:17:20.308Z,101675.44
2023-02-19T17:19:48.535Z,101690.25
2023-02-19T17:22:17.731Z,101687.56
2023-02-19T17:24:48.346Z,101699.03
2023-02-19T17:27:16.572Z,101686.97
2023-02-19T17:29:45.046Z,101694.13
2023-02-19T17:32:14.498Z,101699.28
2023-02-19T17:34:42.808Z,101701.97
2023-02-19T17:37:11.009Z,101702.84
2023-02-19T17:39:39.512Z,101706.31
2023-02-19T17:42:09.304Z,101705.47
2023-02-19T17:44:37.537Z,101701.00
2023-02-19T17:47:05.792Z,101695.56
2023-02-19T17:49:34.481Z,101695.97
2023-02-19T17:52:02.737Z,101703.22
2023-02-19T17:54:30.889Z,101698.88
2023-02-19T17:56:59.019Z,101698.03
2023-02-19T17:59:28.497Z,101693.84
2023-02-19T18:01:56.664Z,101697.38
2023-02-19T18:04:24.857Z,101704.34
2023-02-19T18:06:53.952Z,101696.53
2023-02-19T18:09:23.036Z,101701.88
2023-02-19T18:11:51.307Z,101704.28
2023-02-19T18:14:20.072Z,101699.94
2023-02-19T18:16:50.790Z,101698.00
2023-02-19T18:19:19.926Z,101705.94
2023-02-19T18:21:48.114Z,101703.44
2023-02-19T18:24:16.340Z,101707.75
2023-02-19T18:26:44.712Z,101714.72
2023-02-19T18:29:13.108Z,101720.84
2023-02-19T18:31:41.361Z,101721.72
2023-02-19T18:34:17.586Z,101725.13
2023-02-19T18:36:46.354Z,101719.84
2023-02-19T18:39:14.588Z,101720.78
2023-02-19T18:41:46.824Z,101725.88
2023-02-19T18:44:18.292Z,101723.97
2023-02-19T18:46:46.688Z,101730.03
2023-02-19T18:49:16.854Z,101718.69
2023-02-19T18:51:45.482Z,101722.09
2023-02-19T18:54:13.947Z,101730.88
2023-02-19T18:56:43.317Z,101731.72
2023-02-19T18:59:12.108Z,101719.66
2023-02-19T19:01:40.957Z,101724.84
2023-02-19T19:04:09.518Z,101738.84
2023-02-19T19:06:39.044Z,101726.59
2023-02-19T19:09:07.310Z,101731.97
2023-02-19T19:11:35.901Z,101730.03
2023-02-19T19:14:04.065Z,101727.47
2023-02-19T19:16:32.216Z,101730.09
2023-02-19T19:19:00.460Z,101726.59
2023-02-19T19:21:28.682Z,101736.09
2023-02-19T19:23:58.169Z,101725.56
2023-02-19T19:26:26.444Z,101732.66
2023-02-19T19:28:54.798Z,101736.09
2023-02-19T19:31:24.749Z,101730.75
2023-02-19T19:33:53.372Z,101737.81
2023-02-19T19:36:22.689Z,101744.94
2023-02-19T19:38:50.912Z,101740.69
2023-02-19T19:41:20.850Z,101752.00
2023-02-19T19:43:49.033Z,101752.22
2023-02-19T19:46:19.808Z,101746.28
2023-02-19T19:48:48.604Z,101747.19
2023-02-19T19:51:17.100Z,101739.06
2023-02-19T19:53:48.685Z,101741.75
2023-02-19T19:56:17.334Z,101735.91
2023-02-19T19:58:48.781Z,101730.63
2023-02-19T20:01:20.868Z,101720.25
2023-02-19T20:03:49.264Z,101725.53
2023-02-19T20:06:25.293Z,101729.81
2023-02-19T20:08:53.508Z,101734.38
2023-02-19T20:11:21.768Z,101737.94
2023-02-19T20:13:51.262Z,101730.78
2023-02-19T20:16:24.926Z,101730.00
2023-02-19T20:18:53.134Z,101728.09
2023-02-19T20:21:21.660Z,101727.16
2023-02-19T20:23:50.024Z,101714.97
2023-02-19T20:26:23.232Z,101721.91
2023-02-19T20:28:52.736Z,101731.47
2023-02-19T20:31:21.245Z,101726.41
2023-02-19T20:33:51.299Z,101730.81
2023-02-19T20:36:20.202Z,101740.56
2023-02-19T20:38:50.394Z,101737.09
2023-02-19T20:41:18.648Z,101738.72
2023-02-19T20:43:46.816Z,101742.25
2023-02-19T20:46:16.333Z,101736.97
2023-02-19T20:48:44.544Z,101742.25
2023-02-19T20:51:12.734Z,101745.84
2023-02-19T20:53:43.047Z,101752.81
2023-02-19T20:56:12.557Z,101751.25
2023-02-19T20:58:42.548Z,101761.75
2023-02-19T21:01:12.065Z,101745.19
2023-02-19T21:03:42.062Z,101740.06
2023-02-19T21:06:10.377Z,101742.72
2023-02-19T21:08:38.550Z,101743.56
2023-02-19T21:11:06.844Z,101740.16
2023-02-19T21:13:36.049Z,101739.31
2023-02-19T21:16:04.350Z,101734.94
2023-02-19T21:18:32.512Z,101740.25
2023-02-19T21:21:02.098Z,101744.56
2023-02-19T21:23:30.427Z,101744.56
2023-02-19T21:25:58.829Z,101733.25
2023-02-19T21:28:26.968Z,101740.19
2023-02-19T21:30:55.332Z,101728.88
2023-02-19T21:33:23.475Z,101727.16
2023-02-19T21:35:51.641Z,101719.31
2023-02-19T21:38:22.215Z,101707.03
2023-02-19T21:40:50.656Z,101709.63
2023-02-19T21:43:18.855Z,101704.28
2023-02-19T21:45:47.103Z,101699.13
2023-02-19T21:48:15.274Z,101697.31
2023-02-19T21:50:45.580Z,101691.34
2023-02-19T21:53:14.064Z,101685.94
2023-02-19T21:55:56.606Z,101682.47
2023-02-19T21:58:27.132Z,101677.19
2023-02-19T22:00:56.276Z,101674.47
2023-02-19T22:03:26.391Z,101671.97
2023-02-19T22:05:54.636Z,101674.47
2023-02-19T22:08:22.889Z,101677.03
2023-02-19T22:10:52.398Z,101664.84
2023-02-19T22:13:20.524Z,101664.75
2023-02-19T22:15:48.687Z,101661.25
2023-02-19T22:18:16.867Z,101655.19
2023-02-19T22:20:44.991Z,101653.25
2023-02-19T22:23:13.102Z,101641.91
2023-02-19T22:25:41.528Z,101649.63
2023-02-19T22:28:11.120Z,101640.09
2023-02-19T22:30:40.062Z,101641.72
2023-02-19T22:33:08.284Z,101620.81
2023-02-19T22:35:36.461Z,101634.72
2023-02-19T22:38:04.625Z,101625.94
2023-02-19T22:40:32.777Z,101628.69
2023-02-19T22:43:00.926Z,101633.91
2023-02-19T22:45:30.473Z,101633.88
2023-02-19T22:47:58.672Z,101634.81
2023-02-19T22:50:26.791Z,101636.47
2023-02-19T22:52:55.419Z,101633.16
2023-02-19T22:55:23.557Z,101639.22
2023-02-19T22:57:51.695Z,101648.78
2023-02-19T23:00:22.189Z,101642.78
2023-02-19T23:02:51.727Z,101647.00
2023-02-19T23:05:19.859Z,101651.34
2023-02-19T23:07:48.031Z,101652.34
2023-02-19T23:10:16.186Z,101654.94
2023-02-19T23:12:44.368Z,101648.88
2023-02-19T23:15:12.816Z,101651.66
2023-02-19T23:17:40.945Z,101649.13
2023-02-19T23:20:11.020Z,101647.34
2023-02-19T23:22:39.975Z,101648.19
2023-02-19T23:25:08.988Z,101649.88
2023-02-19T23:27:37.125Z,101645.50
2023-02-19T23:30:05.853Z,101645.69
2023-02-19T23:32:34.004Z,101644.44
2023-02-19T23:35:03.221Z,101640.22
2023-02-19T23:37:33.064Z,101648.25
2023-02-19T23:40:01.200Z,101637.84
2023-02-19T23:42:29.658Z,101635.13
2023-02-19T23:44:57.869Z,101620.44
2023-02-19T23:47:26.580Z,101622.06
2023-02-19T23:49:54.880Z,101612.50
2023-02-19T23:52:23.096Z,101604.63
2023-02-19T23:54:52.599Z,101609.06
2023-02-19T23:57:20.744Z,101614.25
2023-02-19T23:59:49.759Z,101610.91
